createdAt,value
2023-01-02T00:00:09.550Z,14.27
2023-01-02T00:00:24.010Z,14.27
2023-01-02T00:00:45.196Z,14.27
2023-01-02T00:01:11.619Z,14.27
2023-01-02T00:01:36.822Z,14.27
2023-01-02T00:01:59.850Z,14.27
2023-01-02T00:02:31.605Z,14.27
2023-01-02T00:03:04.934Z,14.27
2023-01-02T00:03:35.811Z,14.38
2023-01-02T00:04:07.441Z,14.38
2023-01-02T00:04:23.771Z,14.27
2023-01-02T00:04:44.823Z,14.27
2023-01-02T00:05:11.633Z,14.27
2023-01-02T00:05:36.675Z,14.27
2023-01-02T00:05:59.680Z,14.27
2023-01-02T00:06:31.279Z,14.27
2023-01-02T00:07:04.862Z,14.27
2023-01-02T00:07:35.639Z,14.27
2023-01-02T00:08:07.731Z,14.27
2023-01-02T00:08:23.741Z,14.27
2023-01-02T00:08:44.963Z,14.27
2023-01-02T00:09:12.142Z,14.27
2023-01-02T00:09:36.802Z,14.27
2023-01-02T00:09:59.178Z,14.27
2023-01-02T00:10:31.904Z,14.27
2023-01-02T00:11:03.651Z,14.27
2023-01-02T00:11:35.137Z,14.27
2023-01-02T00:12:07.280Z,14.22
2023-01-02T00:12:23.855Z,14.22
2023-01-02T00:12:45.035Z,14.22
2023-01-02T00:13:11.351Z,14.22
2023-01-02T00:13:36.776Z,14.22
2023-01-02T00:13:59.171Z,14.22
2023-01-02T00:14:31.479Z,14.22
2023-01-02T00:15:05.853Z,14.22
2023-01-02T00:15:35.223Z,14.22
2023-01-02T00:16:07.603Z,14.22
2023-01-02T00:16:23.946Z,14.22
2023-01-02T00:16:45.617Z,14.22
2023-01-02T00:17:11.948Z,14.22
2023-01-02T00:17:36.616Z,14.22
2023-01-02T00:17:59.389Z,14.22
2023-01-02T00:18:31.404Z,14.22
2023-01-02T00:19:03.723Z,14.22
2023-01-02T00:19:36.242Z,14.22
2023-01-02T00:20:08.896Z,14.22
2023-01-02T00:20:24.668Z,14.22
2023-01-02T00:20:45.702Z,14.22
2023-01-02T00:21:11.965Z,14.22
2023-01-02T00:21:37.284Z,14.22
2023-01-02T00:21:59.698Z,14.22
2023-01-02T00:22:31.167Z,14.22
2023-01-02T00:23:03.703Z,14.11
2023-01-02T00:23:35.848Z,14.11
2023-01-02T00:24:07.420Z,14.11
2023-01-02T00:24:24.070Z,14.11
2023-01-02T00:24:45.596Z,14.11
2023-01-02T00:25:11.874Z,14.11
2023-01-02T00:25:36.730Z,14.11
2023-01-02T00:25:59.859Z,14.11
2023-01-02T00:26:31.163Z,14.11
2023-01-02T00:27:04.424Z,14.11
2023-01-02T00:27:35.919Z,14.11
2023-01-02T00:28:07.221Z,14.11
2023-01-02T00:28:23.810Z,14.22
2023-01-02T00:28:44.848Z,14.22
2023-01-02T00:29:11.455Z,14.22
2023-01-02T00:29:36.558Z,14.22
2023-01-02T00:30:01.497Z,14.22
2023-01-02T00:30:37.665Z,14.22
2023-01-02T00:31:04.498Z,14.22
2023-01-02T00:31:35.603Z,14.22
2023-01-02T00:32:07.161Z,14.22
2023-01-02T00:32:23.963Z,14.22
2023-01-02T00:32:44.874Z,14.22
2023-01-02T00:33:11.344Z,14.27
2023-01-02T00:33:36.677Z,14.27
2023-01-02T00:33:59.266Z,14.27
2023-01-02T00:34:31.330Z,14.22
2023-01-02T00:35:04.950Z,14.22
2023-01-02T00:35:35.862Z,14.22
2023-01-02T00:36:07.269Z,14.22
2023-01-02T00:36:24.493Z,14.22
2023-01-02T00:36:45.030Z,14.22
2023-01-02T00:37:11.715Z,14.22
2023-01-02T00:37:37.305Z,14.22
2023-01-02T00:37:59.283Z,14.22
2023-01-02T00:38:31.655Z,14.11
2023-01-02T00:39:03.673Z,14.11
2023-01-02T00:39:35.238Z,14.11
2023-01-02T00:40:07.551Z,14.22
2023-01-02T00:40:23.712Z,14.22
2023-01-02T00:40:47.761Z,14.11
2023-01-02T00:41:11.563Z,14.11
2023-01-02T00:41:36.713Z,14.11
2023-01-02T00:41:59.427Z,14.11
2023-01-02T00:42:31.514Z,14.11
2023-01-02T00:43:04.025Z,14.11
2023-01-02T00:43:35.241Z,14.11
2023-01-02T00:44:07.461Z,14.11
2023-01-02T00:44:24.061Z,14.11
2023-01-02T00:44:45.031Z,14.11
2023-01-02T00:45:12.278Z,14.11
2023-01-02T00:45:36.573Z,14.11
2023-01-02T00:45:59.548Z,14.00
2023-01-02T00:46:31.329Z,14.00
2023-01-02T00:47:03.824Z,14.00
2023-01-02T00:47:35.208Z,14.00
2023-01-02T00:48:07.224Z,14.00
2023-01-02T00:48:23.709Z,14.00
2023-01-02T00:48:44.823Z,14.00
2023-01-02T00:49:11.340Z,14.00
2023-01-02T00:49:36.570Z,14.00
2023-01-02T00:49:59.141Z,14.00
2023-01-02T00:50:31.798Z,14.00
2023-01-02T00:51:03.671Z,14.00
2023-01-02T00:51:35.109Z,14.11
2023-01-02T00:52:07.116Z,14.11
2023-01-02T00:52:23.858Z,14.11
2023-01-02T00:52:45.333Z,14.11
2023-01-02T00:53:11.503Z,14.11
2023-01-02T00:53:36.567Z,14.11
2023-01-02T00:53:59.551Z,14.11
2023-01-02T00:54:31.795Z,14.11
2023-01-02T00:55:04.721Z,14.11
2023-01-02T00:55:35.784Z,14.11
2023-01-02T00:56:07.407Z,14.11
2023-01-02T00:56:23.745Z,14.11
2023-01-02T00:56:44.907Z,14.11
2023-01-02T00:57:11.352Z,14.11
2023-01-02T00:57:36.827Z,14.11
2023-01-02T00:58:00.181Z,14.11
2023-01-02T00:58:31.530Z,14.11
2023-01-02T00:59:03.833Z,14.11
2023-01-02T00:59:35.289Z,14.11
2023-01-02T01:00:09.399Z,14.11
2023-01-02T01:00:24.463Z,14.11
2023-01-02T01:00:45.283Z,14.11
2023-01-02T01:01:11.531Z,14.11
2023-01-02T01:01:36.656Z,14.11
2023-01-02T01:01:59.319Z,14.11
2023-01-02T01:02:31.601Z,14.11
2023-01-02T01:03:03.895Z,14.11
2023-01-02T01:03:35.258Z,14.11
2023-01-02T01:04:07.143Z,14.11
2023-01-02T01:04:23.752Z,14.11
2023-01-02T01:04:44.889Z,14.11
2023-01-02T01:05:11.654Z,14.11
2023-01-02T01:05:36.729Z,14.11
2023-01-02T01:05:59.766Z,14.11
2023-01-02T01:06:31.345Z,14.11
2023-01-02T01:07:03.768Z,14.11
2023-01-02T01:07:35.696Z,14.11
2023-01-02T01:08:07.160Z,14.00
2023-01-02T01:08:23.827Z,14.00
2023-01-02T01:08:44.906Z,14.00
2023-01-02T01:09:11.455Z,14.00
2023-01-02T01:09:36.626Z,14.00
2023-01-02T01:09:59.487Z,14.00
2023-01-02T01:10:31.972Z,14.00
2023-01-02T01:11:03.800Z,14.00
2023-01-02T01:11:35.509Z,14.11
2023-01-02T01:12:07.057Z,14.11
2023-01-02T01:12:23.814Z,14.11
2023-01-02T01:12:44.893Z,14.11
2023-01-02T01:13:11.247Z,14.11
2023-01-02T01:13:36.969Z,14.11
2023-01-02T01:13:59.108Z,14.11
2023-01-02T01:14:31.277Z,14.11
2023-01-02T01:15:05.558Z,14.11
2023-01-02T01:15:35.654Z,14.22
2023-01-02T01:16:07.296Z,14.11
2023-01-02T01:16:23.838Z,14.11
2023-01-02T01:16:44.844Z,14.11
2023-01-02T01:17:11.275Z,14.11
2023-01-02T01:17:36.905Z,14.11
2023-01-02T01:17:59.546Z,14.11
2023-01-02T01:18:31.307Z,14.11
2023-01-02T01:19:03.751Z,14.11
2023-01-02T01:19:35.143Z,14.11
2023-01-02T01:20:08.418Z,14.11
2023-01-02T01:20:24.592Z,14.11
2023-01-02T01:20:45.299Z,14.11
2023-01-02T01:21:11.418Z,14.11
2023-01-02T01:21:36.615Z,14.00
2023-01-02T01:21:59.596Z,14.00
2023-01-02T01:22:31.180Z,14.00
2023-01-02T01:23:03.760Z,14.00
2023-01-02T01:23:35.906Z,14.00
2023-01-02T01:24:07.191Z,14.00
2023-01-02T01:24:23.975Z,14.00
2023-01-02T01:24:44.920Z,14.00
2023-01-02T01:25:11.578Z,14.00
2023-01-02T01:25:36.591Z,14.00
2023-01-02T01:25:59.646Z,14.00
2023-01-02T01:26:31.305Z,14.00
2023-01-02T01:27:03.566Z,14.00
2023-01-02T01:27:35.166Z,14.11
2023-01-02T01:28:07.222Z,14.11
2023-01-02T01:28:23.934Z,14.00
2023-01-02T01:28:44.893Z,14.00
2023-01-02T01:29:11.279Z,14.00
2023-01-02T01:29:36.987Z,14.11
2023-01-02T01:29:59.287Z,14.11
2023-01-02T01:30:32.194Z,14.11
2023-01-02T01:31:03.811Z,14.11
2023-01-02T01:31:35.231Z,14.11
2023-01-02T01:32:07.089Z,14.11
2023-01-02T01:32:23.840Z,14.11
2023-01-02T01:32:44.961Z,14.11
2023-01-02T01:33:11.474Z,14.11
2023-01-02T01:33:36.696Z,14.11
2023-01-02T01:33:59.148Z,14.11
2023-01-02T01:34:31.372Z,14.11
2023-01-02T01:35:05.320Z,14.11
2023-01-02T01:35:35.131Z,14.11
2023-01-02T01:36:07.416Z,14.11
2023-01-02T01:36:24.172Z,14.11
2023-01-02T01:36:45.389Z,14.11
2023-01-02T01:37:11.345Z,14.11
2023-01-02T01:37:36.768Z,14.11
2023-01-02T01:37:59.268Z,14.00
2023-01-02T01:38:31.200Z,14.11
2023-01-02T01:39:03.708Z,14.11
2023-01-02T01:39:35.458Z,14.11
2023-01-02T01:40:09.158Z,14.11
2023-01-02T01:40:24.115Z,14.11
2023-01-02T01:40:45.628Z,14.11
2023-01-02T01:41:11.889Z,14.00
2023-01-02T01:41:36.672Z,14.11
2023-01-02T01:41:59.112Z,14.11
2023-01-02T01:42:31.193Z,14.11
2023-01-02T01:43:03.637Z,14.11
2023-01-02T01:43:35.137Z,14.11
2023-01-02T01:44:07.056Z,14.11
2023-01-02T01:44:23.767Z,14.11
2023-01-02T01:44:44.908Z,14.11
2023-01-02T01:45:12.469Z,14.22
2023-01-02T01:45:36.689Z,14.22
2023-01-02T01:45:59.722Z,14.22
2023-01-02T01:46:31.265Z,14.22
2023-01-02T01:47:03.790Z,14.22
2023-01-02T01:47:35.217Z,14.11
2023-01-02T01:48:07.055Z,14.11
2023-01-02T01:48:23.723Z,14.11
2023-01-02T01:48:44.749Z,14.11
2023-01-02T01:49:11.708Z,14.11
2023-01-02T01:49:36.610Z,14.11
2023-01-02T01:50:04.690Z,14.11
2023-01-02T01:50:31.481Z,14.11
2023-01-02T01:51:03.814Z,14.11
2023-01-02T01:51:35.564Z,14.11
2023-01-02T01:52:07.132Z,14.11
2023-01-02T01:52:39.157Z,14.11
2023-01-02T01:53:11.317Z,14.11
2023-01-02T01:53:36.734Z,14.11
2023-01-02T01:53:59.279Z,14.11
2023-01-02T01:54:31.183Z,14.11
2023-01-02T01:55:04.821Z,14.11
2023-01-02T01:55:35.196Z,14.11
2023-01-02T01:56:07.169Z,14.11
2023-01-02T01:56:39.611Z,14.11
2023-01-02T01:57:11.286Z,14.11
2023-01-02T01:57:37.632Z,14.11
2023-01-02T01:57:59.777Z,14.11
2023-01-02T01:58:31.287Z,14.11
2023-01-02T01:59:03.693Z,14.11
2023-01-02T01:59:35.121Z,14.11
2023-01-02T02:00:09.498Z,14.11
2023-01-02T02:00:39.353Z,14.11
2023-01-02T02:01:11.662Z,14.11
2023-01-02T02:01:36.585Z,14.11
2023-01-02T02:01:59.638Z,14.11
2023-01-02T02:02:31.414Z,14.11
2023-01-02T02:03:03.840Z,14.22
2023-01-02T02:03:35.544Z,14.22
2023-01-02T02:04:07.165Z,14.22
2023-01-02T02:04:24.394Z,14.22
2023-01-02T02:04:44.845Z,14.22
2023-01-02T02:05:11.740Z,14.22
2023-01-02T02:05:36.741Z,14.22
2023-01-02T02:05:59.608Z,14.11
2023-01-02T02:06:31.210Z,14.11
2023-01-02T02:07:03.764Z,14.11
2023-01-02T02:07:35.201Z,14.11
2023-01-02T02:08:07.324Z,14.11
2023-01-02T02:08:39.290Z,14.11
2023-01-02T02:09:11.242Z,14.11
2023-01-02T02:09:36.715Z,14.11
2023-01-02T02:09:59.119Z,14.11
2023-01-02T02:10:31.495Z,14.11
2023-01-02T02:11:03.775Z,14.22
2023-01-02T02:11:35.156Z,14.22
2023-01-02T02:12:06.937Z,14.22
2023-01-02T02:12:39.161Z,14.22
2023-01-02T02:13:11.245Z,14.22
2023-01-02T02:13:36.679Z,14.22
2023-01-02T02:13:59.452Z,14.11
2023-01-02T02:14:31.044Z,14.11
2023-01-02T02:15:05.558Z,14.11
2023-01-02T02:15:35.117Z,14.11
2023-01-02T02:16:07.254Z,14.11
2023-01-02T02:16:39.424Z,14.11
2023-01-02T02:17:11.537Z,14.11
2023-01-02T02:17:36.604Z,14.11
2023-01-02T02:17:59.152Z,14.11
2023-01-02T02:18:31.259Z,14.11
2023-01-02T02:19:03.784Z,14.11
2023-01-02T02:19:35.267Z,14.11
2023-01-02T02:20:08.582Z,14.11
2023-01-02T02:20:39.142Z,14.11
2023-01-02T02:21:11.549Z,14.11
2023-01-02T02:21:36.593Z,14.11
2023-01-02T02:21:59.194Z,14.11
2023-01-02T02:22:31.217Z,14.11
2023-01-02T02:23:04.067Z,14.22
2023-01-02T02:23:35.197Z,14.22
2023-01-02T02:24:07.146Z,14.22
2023-01-02T02:24:39.195Z,14.22
2023-01-02T02:25:11.829Z,14.22
2023-01-02T02:25:36.612Z,14.22
2023-01-02T02:25:59.864Z,14.22
2023-01-02T02:26:31.237Z,14.22
2023-01-02T02:27:04.539Z,14.22
2023-01-02T02:27:35.190Z,14.22
2023-01-02T02:28:07.086Z,14.22
2023-01-02T02:28:39.098Z,14.22
2023-01-02T02:29:11.228Z,14.22
2023-01-02T02:29:36.691Z,14.22
2023-01-02T02:29:59.288Z,14.22
2023-01-02T02:30:31.352Z,14.22
2023-01-02T02:31:02.328Z,14.22
2023-01-02T02:31:34.548Z,14.22
2023-01-02T02:32:05.763Z,14.22
2023-01-02T02:32:38.397Z,14.22
2023-01-02T02:33:09.850Z,14.22
2023-01-02T02:33:35.845Z,14.22
2023-01-02T02:33:58.559Z,14.11
2023-01-02T02:34:30.775Z,14.11
2023-01-02T02:35:02.568Z,14.11
2023-01-02T02:35:33.687Z,14.11
2023-01-02T02:36:06.762Z,14.11
2023-01-02T02:36:38.461Z,14.11
2023-01-02T02:37:10.080Z,14.11
2023-01-02T02:37:35.444Z,14.11
2023-01-02T02:37:58.382Z,14.11
2023-01-02T02:38:29.943Z,14.11
2023-01-02T02:39:03.488Z,14.22
2023-01-02T02:39:34.085Z,14.22
2023-01-02T02:40:06.259Z,14.22
2023-01-02T02:40:22.782Z,14.22
2023-01-02T02:40:44.318Z,14.22
2023-01-02T02:41:10.273Z,14.22
2023-01-02T02:41:36.023Z,14.22
2023-01-02T02:41:58.173Z,14.22
2023-01-02T02:42:30.313Z,14.22
2023-01-02T02:43:02.909Z,14.22
2023-01-02T02:43:34.024Z,14.22
2023-01-02T02:44:05.913Z,14.22
2023-01-02T02:44:37.817Z,14.22
2023-01-02T02:45:11.858Z,14.22
2023-01-02T02:45:36.017Z,14.22
2023-01-02T02:45:58.327Z,14.22
2023-01-02T02:46:30.279Z,14.22
2023-01-02T02:47:02.815Z,14.22
2023-01-02T02:47:34.489Z,14.22
2023-01-02T02:48:06.427Z,14.22
2023-01-02T02:48:43.008Z,14.22
2023-01-02T02:49:09.784Z,14.11
2023-01-02T02:49:35.423Z,14.11
2023-01-02T02:49:57.877Z,14.11
2023-01-02T02:50:30.852Z,14.11
2023-01-02T02:51:02.786Z,14.11
2023-01-02T02:56:07.389Z,14.22
2023-01-02T02:56:39.528Z,14.22
2023-01-02T02:57:12.046Z,14.22
2023-01-02T02:57:36.769Z,14.11
2023-01-02T02:57:59.482Z,14.11
2023-01-02T02:58:31.336Z,14.11
2023-01-02T02:59:03.750Z,14.11
2023-01-02T02:59:35.544Z,14.11
2023-01-02T03:00:09.291Z,14.11
2023-01-02T03:00:39.210Z,14.00
2023-01-02T03:01:11.249Z,14.00
2023-01-02T03:01:37.184Z,14.00
2023-01-02T03:01:59.779Z,14.00
2023-01-02T03:02:31.401Z,14.00
2023-01-02T03:03:04.037Z,14.00
2023-01-02T03:03:35.492Z,13.88
2023-01-02T03:04:07.124Z,13.88
2023-01-02T03:04:39.075Z,13.88
2023-01-02T03:05:11.731Z,13.88
2023-01-02T03:05:36.627Z,13.88
2023-01-02T03:05:59.642Z,13.88
2023-01-02T03:06:31.324Z,13.88
2023-01-02T03:07:03.734Z,13.88
2023-01-02T03:07:35.302Z,13.88
2023-01-02T03:08:07.052Z,13.88
2023-01-02T03:08:41.481Z,13.88
2023-01-02T03:09:11.624Z,13.88
2023-01-02T03:09:36.644Z,13.77
2023-01-02T03:09:59.326Z,13.77
2023-01-02T03:10:31.551Z,13.77
2023-01-02T03:11:03.986Z,13.77
2023-01-02T03:11:35.259Z,13.88
2023-01-02T03:12:07.022Z,13.88
2023-01-02T03:12:39.064Z,13.88
2023-01-02T03:13:11.492Z,13.88
2023-01-02T03:13:41.918Z,13.88
2023-01-02T03:13:59.155Z,13.88
2023-01-02T03:14:31.207Z,13.88
2023-01-02T03:15:06.402Z,13.88
2023-01-02T03:15:35.287Z,13.88
2023-01-02T03:16:07.482Z,13.88
2023-01-02T03:16:39.281Z,13.88
2023-01-02T03:17:11.212Z,13.88
2023-01-02T03:17:36.807Z,13.88
2023-01-02T03:17:59.374Z,13.88
2023-01-02T03:18:31.233Z,13.88
2023-01-02T03:19:04.207Z,14.00
2023-01-02T03:19:35.209Z,14.00
2023-01-02T03:20:08.518Z,14.00
2023-01-02T03:20:39.534Z,14.00
2023-01-02T03:21:11.349Z,13.88
2023-01-02T03:21:37.148Z,13.88
2023-01-02T03:21:59.167Z,13.88
2023-01-02T03:22:31.289Z,13.88
2023-01-02T03:23:03.668Z,13.88
2023-01-02T03:23:35.237Z,13.88
2023-01-02T03:24:07.096Z,13.88
2023-01-02T03:24:44.665Z,13.88
2023-01-02T03:25:11.991Z,13.88
2023-01-02T03:25:36.670Z,13.77
2023-01-02T03:25:59.481Z,13.77
2023-01-02T03:26:31.194Z,13.77
2023-01-02T03:27:04.259Z,13.77
2023-01-02T03:27:35.192Z,13.77
2023-01-02T03:28:07.179Z,13.77
2023-01-02T03:28:38.973Z,13.77
2023-01-02T03:29:11.399Z,13.77
2023-01-02T03:29:36.703Z,13.77
2023-01-02T03:29:59.132Z,13.77
2023-01-02T03:30:32.154Z,13.77
2023-01-02T03:31:04.221Z,13.77
2023-01-02T03:31:35.371Z,13.72
2023-01-02T03:32:07.093Z,13.72
2023-01-02T03:32:39.093Z,13.72
2023-01-02T03:33:11.233Z,13.72
2023-01-02T03:33:37.104Z,13.72
2023-01-02T03:33:59.298Z,13.72
2023-01-02T03:34:31.178Z,13.77
2023-01-02T03:35:04.789Z,13.77
2023-01-02T03:35:35.160Z,13.77
2023-01-02T03:36:07.029Z,13.77
2023-01-02T03:36:38.977Z,13.77
2023-01-02T03:37:11.369Z,13.77
2023-01-02T03:37:36.713Z,13.77
2023-01-02T03:37:59.069Z,13.77
2023-01-02T03:38:31.116Z,13.77
2023-01-02T03:39:03.664Z,13.72
2023-01-02T03:39:35.284Z,13.72
2023-01-02T03:40:07.538Z,13.72
2023-01-02T03:40:38.944Z,13.72
2023-01-02T03:41:11.404Z,13.72
2023-01-02T03:41:36.953Z,13.72
2023-01-02T03:41:59.150Z,13.72
2023-01-02T03:42:31.172Z,13.72
2023-01-02T03:43:03.632Z,13.61
2023-01-02T03:43:35.156Z,13.61
2023-01-02T03:44:07.123Z,13.61
2023-01-02T03:44:39.175Z,13.61
2023-01-02T03:45:12.317Z,13.61
2023-01-02T03:45:36.802Z,13.61
2023-01-02T03:45:59.742Z,13.61
2023-01-02T03:46:31.260Z,13.61
2023-01-02T03:47:03.765Z,13.61
2023-01-02T03:47:35.307Z,13.61
2023-01-02T03:48:06.977Z,13.61
2023-01-02T03:48:39.119Z,13.61
2023-01-02T03:49:11.333Z,13.61
2023-01-02T03:49:36.678Z,13.61
2023-01-02T03:49:59.108Z,13.61
2023-01-02T03:50:31.530Z,13.61
2023-01-02T03:51:03.981Z,13.61
2023-01-02T03:51:35.202Z,13.61
2023-01-02T03:52:07.110Z,13.61
2023-01-02T03:52:39.088Z,13.61
2023-01-02T03:53:11.567Z,13.61
2023-01-02T03:53:36.748Z,13.61
2023-01-02T03:53:59.469Z,13.61
2023-01-02T03:54:31.087Z,13.61
2023-01-02T03:55:05.373Z,13.61
2023-01-02T03:55:35.210Z,13.61
2023-01-02T03:56:07.127Z,13.61
2023-01-02T03:56:39.238Z,13.61
2023-01-02T03:57:11.218Z,13.61
2023-01-02T03:57:36.792Z,13.61
2023-01-02T03:57:59.202Z,13.61
2023-01-02T03:58:31.114Z,13.61
2023-01-02T03:59:03.831Z,13.61
2023-01-02T03:59:35.130Z,13.61
2023-01-02T04:00:08.916Z,13.61
2023-01-02T04:00:39.304Z,13.61
2023-01-02T04:01:11.705Z,13.50
2023-01-02T04:01:36.867Z,13.50
2023-01-02T04:01:59.216Z,13.50
2023-01-02T04:02:31.423Z,13.50
2023-01-02T04:03:03.792Z,13.50
2023-01-02T04:03:35.174Z,13.50
2023-01-02T04:04:07.009Z,13.50
2023-01-02T04:04:38.979Z,13.50
2023-01-02T04:05:11.581Z,13.50
2023-01-02T04:05:36.717Z,13.50
2023-01-02T04:05:59.453Z,13.50
2023-01-02T04:06:31.515Z,13.50
2023-01-02T04:07:03.733Z,13.50
2023-01-02T04:07:35.429Z,13.50
2023-01-02T04:08:07.034Z,13.50
2023-01-02T04:08:39.077Z,13.38
2023-01-02T04:09:11.324Z,13.38
2023-01-02T04:09:37.032Z,13.38
2023-01-02T04:09:59.894Z,13.38
2023-01-02T04:10:32.653Z,13.38
2023-01-02T04:11:04.760Z,13.38
2023-01-02T04:11:35.284Z,13.38
2023-01-02T04:12:07.041Z,13.50
2023-01-02T04:12:38.929Z,13.50
2023-01-02T04:13:11.272Z,13.50
2023-01-02T04:13:36.633Z,13.50
2023-01-02T04:13:59.183Z,13.50
2023-01-02T04:14:31.039Z,13.50
2023-01-02T04:15:05.833Z,13.50
2023-01-02T04:15:35.995Z,13.50
2023-01-02T04:16:07.057Z,13.50
2023-01-02T04:16:38.957Z,13.50
2023-01-02T04:17:11.266Z,13.50
2023-01-02T04:17:37.001Z,13.50
2023-01-02T04:17:59.247Z,13.50
2023-01-02T04:18:31.295Z,13.50
2023-01-02T04:19:03.781Z,13.50
2023-01-02T04:19:35.441Z,13.50
2023-01-02T04:20:08.411Z,13.50
2023-01-02T04:20:39.849Z,13.50
2023-01-02T04:21:11.260Z,13.50
2023-01-02T04:21:36.672Z,13.50
2023-01-02T04:21:59.191Z,13.50
2023-01-02T04:22:31.207Z,13.50
2023-01-02T04:23:04.177Z,13.50
2023-01-02T04:23:35.070Z,13.50
2023-01-02T04:24:07.017Z,13.50
2023-01-02T04:24:39.376Z,13.50
2023-01-02T04:25:11.677Z,13.50
2023-01-02T04:25:36.679Z,13.50
2023-01-02T04:25:59.508Z,13.50
2023-01-02T04:26:31.115Z,13.50
2023-01-02T04:27:04.240Z,13.50
2023-01-02T04:27:35.157Z,13.50
2023-01-02T04:28:07.020Z,13.50
2023-01-02T04:28:39.041Z,13.50
2023-01-02T04:29:11.298Z,13.50
2023-01-02T04:29:36.727Z,13.50
2023-01-02T04:29:59.002Z,13.50
2023-01-02T04:30:32.258Z,13.50
2023-01-02T04:31:04.196Z,13.50
2023-01-02T04:31:35.458Z,13.38
2023-01-02T04:32:07.065Z,13.38
2023-01-02T04:32:38.971Z,13.38
2023-01-02T04:33:11.210Z,13.38
2023-01-02T04:33:36.674Z,13.38
2023-01-02T04:33:58.987Z,13.38
2023-01-02T04:34:31.143Z,13.38
2023-01-02T04:35:05.007Z,13.38
2023-01-02T04:35:35.369Z,13.38
2023-01-02T04:36:06.952Z,13.38
2023-01-02T04:36:38.920Z,13.38
2023-01-02T04:37:11.249Z,13.38
2023-01-02T04:37:36.662Z,13.38
2023-01-02T04:37:59.517Z,13.38
2023-01-02T04:38:31.161Z,13.38
2023-01-02T04:39:04.223Z,13.38
2023-01-02T04:39:35.291Z,13.38
2023-01-02T04:40:07.407Z,13.38
2023-01-02T04:40:23.636Z,13.38
2023-01-02T04:40:45.148Z,13.38
2023-01-02T04:41:11.247Z,13.38
2023-01-02T04:41:36.662Z,13.38
2023-01-02T04:41:59.240Z,13.38
2023-01-02T04:42:31.392Z,13.27
2023-01-02T04:43:04.126Z,13.27
2023-01-02T04:43:35.273Z,13.27
2023-01-02T04:44:06.974Z,13.27
2023-01-02T04:44:23.667Z,13.27
2023-01-02T04:44:44.780Z,13.27
2023-01-02T04:45:12.270Z,13.27
2023-01-02T04:45:36.723Z,13.27
2023-01-02T04:45:59.835Z,13.27
2023-01-02T04:46:31.205Z,13.27
2023-01-02T04:47:04.270Z,13.27
2023-01-02T04:47:35.135Z,13.27
2023-01-02T04:48:07.097Z,13.27
2023-01-02T04:48:23.656Z,13.27
2023-01-02T04:48:44.774Z,13.27
2023-01-02T04:49:11.471Z,13.27
2023-01-02T04:49:36.724Z,13.27
2023-01-02T04:49:59.257Z,13.27
2023-01-02T04:50:31.523Z,13.27
2023-01-02T04:51:04.269Z,13.27
2023-01-02T04:51:35.870Z,13.27
2023-01-02T04:52:07.014Z,13.27
2023-01-02T04:52:23.657Z,13.27
2023-01-02T04:52:44.773Z,13.27
2023-01-02T04:53:11.924Z,13.27
2023-01-02T04:53:36.721Z,13.27
2023-01-02T04:53:58.991Z,13.27
2023-01-02T04:54:31.373Z,13.27
2023-01-02T04:55:05.084Z,13.27
2023-01-02T04:55:35.451Z,13.27
2023-01-02T04:56:07.051Z,13.27
2023-01-02T04:56:23.646Z,13.27
2023-01-02T04:56:44.972Z,13.27
2023-01-02T04:57:11.237Z,13.27
2023-01-02T04:57:36.721Z,13.27
2023-01-02T04:57:59.315Z,13.27
2023-01-02T04:58:31.248Z,13.27
2023-01-02T04:59:03.872Z,13.27
2023-01-02T04:59:35.093Z,13.27
2023-01-02T05:00:09.095Z,13.27
2023-01-02T05:00:23.791Z,13.27
2023-01-02T05:00:45.109Z,13.27
2023-01-02T05:01:11.818Z,13.27
2023-01-02T05:01:36.817Z,13.27
2023-01-02T05:01:59.164Z,13.27
2023-01-02T05:02:31.274Z,13.27
2023-01-02T05:03:04.053Z,13.27
2023-01-02T05:03:35.068Z,13.27
2023-01-02T05:04:07.166Z,13.27
2023-01-02T05:04:23.826Z,13.27
2023-01-02T05:04:44.700Z,13.22
2023-01-02T05:05:11.655Z,13.22
2023-01-02T05:05:37.084Z,13.22
2023-01-02T05:05:59.751Z,13.22
2023-01-02T05:06:31.233Z,13.22
2023-01-02T05:07:03.853Z,13.22
2023-01-02T05:07:35.467Z,13.22
2023-01-02T05:08:12.101Z,13.22
2023-01-02T05:08:23.618Z,13.27
2023-01-02T05:08:44.893Z,13.27
2023-01-02T05:09:11.256Z,13.27
2023-01-02T05:09:36.803Z,13.27
2023-01-02T05:09:59.312Z,13.27
2023-01-02T05:10:31.589Z,13.27
2023-01-02T05:11:04.195Z,13.27
2023-01-02T05:11:35.077Z,13.27
2023-01-02T05:12:06.888Z,13.27
2023-01-02T05:12:23.620Z,13.27
2023-01-02T05:12:45.018Z,13.27
2023-01-02T05:13:11.271Z,13.27
2023-01-02T05:13:36.652Z,13.27
2023-01-02T05:14:03.836Z,13.27
2023-01-02T05:14:31.166Z,13.27
2023-01-02T05:15:06.252Z,13.27
2023-01-02T05:15:35.458Z,13.27
2023-01-02T05:16:07.089Z,13.27
2023-01-02T05:16:23.920Z,13.27
2023-01-02T05:16:44.862Z,13.27
2023-01-02T05:17:11.206Z,13.38
2023-01-02T05:17:36.793Z,13.38
2023-01-02T05:17:59.092Z,13.38
2023-01-02T05:18:31.098Z,13.38
2023-01-02T05:19:04.089Z,13.38
2023-01-02T05:19:35.065Z,13.38
2023-01-02T05:20:08.348Z,13.38
2023-01-02T05:20:23.814Z,13.38
2023-01-02T05:20:46.187Z,13.38
2023-01-02T05:21:11.483Z,13.38
2023-01-02T05:21:36.706Z,13.38
2023-01-02T05:21:59.327Z,13.38
2023-01-02T05:22:31.066Z,13.38
2023-01-02T05:23:04.127Z,13.38
2023-01-02T05:23:35.268Z,13.38
2023-01-02T05:24:07.327Z,13.38
2023-01-02T05:24:23.681Z,13.38
2023-01-02T05:24:44.901Z,13.38
2023-01-02T05:25:11.575Z,13.38
2023-01-02T05:25:36.648Z,13.38
2023-01-02T05:25:59.329Z,13.38
2023-01-02T05:26:31.256Z,13.38
2023-01-02T05:27:03.757Z,13.27
2023-01-02T05:27:35.142Z,13.27
2023-01-02T05:28:07.080Z,13.27
2023-01-02T05:28:23.809Z,13.27
2023-01-02T05:28:44.688Z,13.27
2023-01-02T05:29:11.385Z,13.27
2023-01-02T05:29:36.793Z,13.27
2023-01-02T05:29:59.025Z,13.27
2023-01-02T05:30:32.167Z,13.27
2023-01-02T05:31:03.750Z,13.27
2023-01-02T05:31:35.643Z,13.27
2023-01-02T05:32:07.096Z,13.27
2023-01-02T05:32:23.769Z,13.27
2023-01-02T05:32:45.031Z,13.27
2023-01-02T05:33:11.525Z,13.27
2023-01-02T05:33:36.689Z,13.27
2023-01-02T05:33:59.207Z,13.27
2023-01-02T05:34:31.201Z,13.27
2023-01-02T05:35:05.477Z,13.27
2023-01-02T05:35:35.125Z,13.27
2023-01-02T05:36:06.992Z,13.27
2023-01-02T05:36:24.002Z,13.27
2023-01-02T05:36:44.791Z,13.27
2023-01-02T05:37:11.465Z,13.27
2023-01-02T05:37:36.762Z,13.27
2023-01-02T05:37:59.162Z,13.22
2023-01-02T05:38:31.146Z,13.22
2023-01-02T05:39:03.570Z,13.22
2023-01-02T05:39:35.021Z,13.22
2023-01-02T05:40:07.390Z,13.22
2023-01-02T05:40:23.905Z,13.22
2023-01-02T05:40:45.219Z,13.11
2023-01-02T05:41:11.142Z,13.11
2023-01-02T05:41:36.663Z,13.11
2023-01-02T05:41:59.178Z,13.11
2023-01-02T05:42:31.166Z,13.11
2023-01-02T05:43:04.041Z,13.22
2023-01-02T05:43:35.196Z,13.22
2023-01-02T05:44:06.995Z,13.22
2023-01-02T05:44:23.677Z,13.22
2023-01-02T05:44:44.785Z,13.22
2023-01-02T05:45:12.103Z,13.11
2023-01-02T05:45:37.144Z,13.11
2023-01-02T05:45:59.373Z,13.11
2023-01-02T05:46:31.127Z,13.11
2023-01-02T05:47:04.050Z,13.11
2023-01-02T05:47:35.113Z,13.11
2023-01-02T05:48:06.971Z,13.11
2023-01-02T05:48:23.758Z,13.11
2023-01-02T05:48:44.742Z,13.11
2023-01-02T05:49:11.259Z,13.11
2023-01-02T05:49:36.645Z,13.11
2023-01-02T05:49:59.123Z,13.11
2023-01-02T05:50:31.489Z,13.11
2023-01-02T05:51:04.204Z,13.11
2023-01-02T05:51:35.129Z,13.11
2023-01-02T05:52:07.073Z,13.11
2023-01-02T05:52:45.098Z,13.11
2023-01-02T05:53:11.224Z,13.11
2023-01-02T05:53:36.713Z,13.11
2023-01-02T05:53:59.269Z,13.11
2023-01-02T05:54:31.366Z,13.11
2023-01-02T05:55:05.677Z,13.11
2023-01-02T05:55:35.078Z,13.11
2023-01-02T05:56:06.975Z,13.11
2023-01-02T05:56:24.225Z,13.11
2023-01-02T05:56:44.733Z,13.11
2023-01-02T05:57:11.208Z,13.11
2023-01-02T05:57:36.662Z,13.11
2023-01-02T05:57:59.173Z,13.11
2023-01-02T05:58:31.717Z,13.11
2023-01-02T05:59:04.498Z,13.11
2023-01-02T05:59:36.406Z,13.11
2023-01-02T06:00:08.844Z,13.11
2023-01-02T06:00:24.306Z,13.11
2023-01-02T06:00:45.171Z,13.11
2023-01-02T06:01:11.209Z,13.11
2023-01-02T06:01:36.924Z,13.11
2023-01-02T06:01:59.221Z,13.11
2023-01-02T06:02:31.297Z,13.11
2023-01-02T06:03:03.823Z,13.11
2023-01-02T06:03:35.907Z,13.11
2023-01-02T06:04:06.992Z,13.11
2023-01-02T06:04:23.934Z,13.11
2023-01-02T06:04:44.834Z,13.11
2023-01-02T06:05:11.843Z,13.11